Time;durP1;ratioP1;P1;durP2;ratioP2;P2;SDS_P1;SDS_P2;PMS_P1;PMS_P2;Temp;Humidity;BMP_temperature;BMP_pressure;BME280_temperature;BME280_humidity;BME280_pressure;Samples;Min_cycle;Max_cycle;Signal;HPM_P1;HPM_P2
2021/04/05 00:00:26;;;;;;;31.10;16.70;;;3.00;99.90;;;;;;5073988;28;20292;-65
2021/04/05 00:02:52;;;;;;;28.60;15.95;;;3.00;99.90;;;;;;5074298;28;20578;-65
2021/04/05 00:05:20;;;;;;;27.60;16.63;;;3.00;99.90;;;;;;5074098;28;20187;-67
2021/04/05 00:07:48;;;;;;;30.25;16.52;;;3.10;99.90;;;;;;5073829;28;20702;-67
2021/04/05 00:10:36;;;;;;;23.88;15.13;;;3.10;99.90;;;;;;5073826;28;20211;-68
2021/04/05 00:13:06;;;;;;;24.90;15.07;;;3.40;99.90;;;;;;5073100;28;20189;-66
2021/04/05 00:15:31;;;;;;;29.60;15.70;;;3.10;99.90;;;;;;5074620;28;20184;-67
2021/04/05 00:17:57;;;;;;;26.30;16.03;;;3.10;99.90;;;;;;5073705;28;20248;-68
2021/04/05 00:20:37;;;;;;;21.30;14.97;;;3.10;99.90;;;;;;5074091;28;20163;-67
2021/04/05 00:23:03;;;;;;;20.87;15.33;;;3.10;99.90;;;;;;5073672;28;20650;-67
2021/04/05 00:25:29;;;;;;;24.27;16.53;;;3.20;99.90;;;;;;5073679;28;20768;-68
2021/04/05 00:27:54;;;;;;;27.63;15.57;;;3.20;99.90;;;;;;5072830;28;20413;-68
2021/04/05 00:30:25;;;;;;;23.77;14.93;;;3.30;99.90;;;;;;5073582;28;20353;-66
2021/04/05 00:32:51;;;;;;;22.20;15.20;;;3.20;99.90;;;;;;5073558;28;20175;-66
2021/04/05 00:35:18;;;;;;;16.63;12.77;;;3.30;99.90;;;;;;5073438;28;20918;-65
2021/04/05 00:37:45;;;;;;;21.15;14.85;;;4.40;99.90;;;;;;5073456;28;20492;-65
2021/04/05 00:40:13;;;;;;;28.75;18.25;;;3.30;99.90;;;;;;5073404;28;20654;-67
2021/04/05 00:42:39;;;;;;;26.45;16.30;;;3.40;99.90;;;;;;5073040;28;20584;-64
2021/04/05 00:45:07;;;;;;;25.80;16.67;;;3.40;99.90;;;;;;5073365;28;20563;-65
2021/04/05 00:47:37;;;;;;;23.70;16.53;;;3.40;99.90;;;;;;5073259;28;20404;-67
2021/04/05 00:50:09;;;;;;;20.07;15.07;;;3.50;99.90;;;;;;5073264;28;20445;-68
2021/04/05 00:52:36;;;;;;;24.03;16.13;;;3.40;99.90;;;;;;5072843;28;20393;-66
2021/04/05 00:55:03;;;;;;;24.90;15.37;;;3.40;99.90;;;;;;5073007;28;20471;-67
2021/04/05 00:57:29;;;;;;;21.60;16.00;;;3.50;99.90;;;;;;5072820;28;20425;-67
2021/04/05 00:59:55;;;;;;;25.30;18.07;;;3.50;99.90;;;;;;5072860;28;20405;-66
2021/04/05 01:02:21;;;;;;;27.57;16.70;;;3.50;99.90;;;;;;5071375;28;20534;-67
2021/04/05 01:04:46;;;;;;;24.87;16.97;;;3.50;99.90;;;;;;5072885;28;20686;-67
2021/04/05 01:07:12;;;;;;;27.60;16.50;;;3.40;99.90;;;;;;5072853;28;20167;-67
2021/04/05 01:09:37;;;;;;;25.60;16.40;;;3.50;99.90;;;;;;5072747;28;20178;-67
2021/04/05 01:12:03;;;;;;;20.13;15.97;;;3.60;99.90;;;;;;5072268;28;20294;-67
2021/04/05 01:14:29;;;;;;;19.30;15.10;;;3.60;99.90;;;;;;5072577;28;20195;-68
2021/04/05 01:16:54;;;;;;;31.13;16.50;;;3.70;99.90;;;;;;5072837;28;20460;-67
2021/04/05 01:19:20;;;;;;;21.40;15.07;;;3.70;99.90;;;;;;5072564;28;20582;-67
2021/04/05 01:21:48;;;;;;;25.90;16.40;;;3.60;99.90;;;;;;5072237;28;20324;-63
2021/04/05 01:24:14;;;;;;;26.50;15.10;;;3.60;99.90;;;;;;5072851;28;20195;-65
2021/04/05 01:26:40;;;;;;;23.23;17.30;;;3.60;99.90;;;;;;5072437;28;20410;-63
2021/04/05 01:29:05;;;;;;;32.87;16.90;;;3.70;99.90;;;;;;5072221;28;20239;-65
2021/04/05 01:31:31;;;;;;;23.70;16.63;;;3.60;99.90;;;;;;5071975;28;20332;-67
2021/04/05 01:33:56;;;;;;;28.37;18.50;;;3.70;99.90;;;;;;5072211;28;20202;-66
2021/04/05 01:36:22;;;;;;;27.93;16.33;;;3.70;99.90;;;;;;5072422;28;20183;-65
2021/04/05 01:38:50;;;;;;;26.27;17.87;;;3.70;99.90;;;;;;5072155;28;20169;-67
2021/04/05 01:41:22;;;;;;;19.67;15.60;;;3.70;99.90;;;;;;5070978;28;20536;-67
2021/04/05 01:43:48;;;;;;;24.50;16.63;;;3.70;99.90;;;;;;5072188;28;20421;-66
2021/04/05 01:46:15;;;;;;;28.60;16.80;;;3.80;99.90;;;;;;5072174;28;20455;-67
2021/04/05 01:48:41;;;;;;;29.10;17.57;;;3.80;99.90;;;;;;5072348;28;20705;-66
2021/04/05 01:51:10;;;;;;;24.70;15.67;;;3.80;99.90;;;;;;5071633;28;20456;-67
2021/04/05 01:53:38;;;;;;;25.25;17.35;;;3.80;99.90;;;;;;5072094;28;20524;-65
2021/04/05 01:56:06;;;;;;;29.50;16.97;;;3.80;99.90;;;;;;5072335;28;20183;-66
2021/04/05 01:58:35;;;;;;;27.70;19.37;;;3.80;99.90;;;;;;5071973;28;20772;-67
2021/04/05 02:01:02;;;;;;;24.20;16.20;;;3.80;99.90;;;;;;5071760;28;20445;-66
2021/04/05 02:03:28;;;;;;;26.70;17.70;;;3.80;99.90;;;;;;5071877;28;20424;-68
2021/04/05 02:06:06;;;;;;;31.10;18.83;;;3.80;99.90;;;;;;5071908;28;20783;-65
2021/04/05 02:08:32;;;;;;;24.20;15.37;;;3.90;99.90;;;;;;5071679;28;20416;-66
2021/04/05 02:11:07;;;;;;;19.50;14.57;;;3.90;99.90;;;;;;5071459;28;20861;-67
2021/04/05 02:13:33;;;;;;;26.50;16.80;;;4.00;99.90;;;;;;5071728;28;20417;-68
2021/04/05 02:15:59;;;;;;;23.37;17.40;;;4.00;99.90;;;;;;5071834;28;20418;-67
2021/04/05 02:18:25;;;;;;;28.00;17.27;;;3.90;99.90;;;;;;5071608;28;20767;-67
2021/04/05 02:20:52;;;;;;;27.13;16.67;;;4.00;99.90;;;;;;5071445;28;20405;-67
2021/04/05 02:23:18;;;;;;;26.63;15.90;;;4.00;99.90;;;;;;5071611;28;20922;-65
2021/04/05 02:28:53;;;;;;;23.73;16.60;;;3.90;99.90;;;;;;5069190;28;20416;-65
2021/04/05 02:31:21;;;;;;;36.53;16.17;;;3.90;99.90;;;;;;5068980;28;21005;-65
2021/04/05 02:33:50;;;;;;;24.57;16.33;;;3.90;99.90;;;;;;5070476;28;20799;-65
2021/04/05 02:36:18;;;;;;;29.17;14.40;;;3.90;99.90;;;;;;5071654;28;20402;-65
2021/04/05 02:38:47;;;;;;;22.70;14.80;;;4.00;99.90;;;;;;5071732;28;20402;-65
2021/04/05 02:41:14;;;;;;;26.57;15.37;;;4.00;99.90;;;;;;5071255;28;20409;-63
2021/04/05 02:43:40;;;;;;;33.60;15.07;;;4.00;99.90;;;;;;5071494;28;20505;-65
2021/04/05 02:46:11;;;;;;;26.20;15.20;;;4.00;99.90;;;;;;5071268;28;20405;-65
2021/04/05 02:48:42;;;;;;;28.20;17.10;;;4.00;99.90;;;;;;5071439;28;20394;-64
2021/04/05 02:51:08;;;;;;;21.47;14.10;;;4.00;99.90;;;;;;5071556;28;20899;-65
2021/04/05 02:53:36;;;;;;;24.50;16.40;;;4.00;99.90;;;;;;5075361;28;20452;-65
2021/04/05 02:56:07;;;;;;;23.30;15.23;;;4.00;99.90;;;;;;5075444;28;20408;-65
2021/04/05 02:58:35;;;;;;;24.40;17.33;;;3.90;99.90;;;;;;5075122;28;20430;-65
2021/04/05 03:01:03;;;;;;;20.30;13.97;;;4.00;99.90;;;;;;5074921;28;20409;-65
2021/04/05 03:03:29;;;;;;;18.80;14.77;;;4.10;99.90;;;;;;5075217;28;20717;-65
2021/04/05 03:05:55;;;;;;;26.03;17.47;;;4.00;99.90;;;;;;5075139;28;20405;-65
2021/04/05 03:08:24;;;;;;;26.67;15.33;;;4.00;99.90;;;;;;5075032;28;20412;-65
2021/04/05 03:10:51;;;;;;;29.37;17.53;;;4.00;99.90;;;;;;5074670;28;20452;-64
2021/04/05 03:13:17;;;;;;;23.40;14.50;;;4.00;99.90;;;;;;5074815;28;20425;-65
2021/04/05 03:15:43;;;;;;;20.93;13.87;;;4.10;99.90;;;;;;5074945;28;20409;-66
2021/04/05 03:18:09;;;;;;;24.50;14.73;;;4.10;99.90;;;;;;5074845;28;20582;-66
2021/04/05 03:20:36;;;;;;;19.67;14.00;;;4.10;99.90;;;;;;5074590;28;20914;-65
2021/04/05 03:23:03;;;;;;;17.87;11.40;;;4.00;99.90;;;;;;5074641;28;20396;-66
2021/04/05 03:25:29;;;;;;;17.93;13.97;;;4.10;99.90;;;;;;5074894;28;20754;-66
2021/04/05 03:27:55;;;;;;;22.00;12.60;;;4.20;99.90;;;;;;5074520;28;20412;-67
2021/04/05 03:30:27;;;;;;;23.20;12.00;;;4.20;99.90;;;;;;5074610;28;20514;-67
2021/04/05 03:32:59;;;;;;;18.77;12.37;;;4.20;99.90;;;;;;5074707;28;20269;-67
2021/04/05 03:35:31;;;;;;;21.77;13.70;;;4.20;99.90;;;;;;5074739;28;20394;-64
2021/04/05 03:38:00;;;;;;;23.00;13.23;;;4.20;99.90;;;;;;5074522;28;20411;-65
2021/04/05 03:40:27;;;;;;;21.10;13.47;;;4.20;99.90;;;;;;5074854;28;20404;-64
2021/04/05 03:43:06;;;;;;;16.80;13.37;;;4.20;99.90;;;;;;5074589;28;20422;-65
2021/04/05 03:45:42;;;;;;;23.40;15.00;;;4.20;99.90;;;;;;5074580;28;20412;-67
2021/04/05 03:49:03;;;;;;;18.33;11.13;;;4.20;99.90;;;;;;5074457;28;20416;-66
2021/04/05 03:51:40;;;;;;;15.17;10.73;;;4.20;99.90;;;;;;5045014;28;20555;-67
2021/04/05 03:54:09;;;;;;;20.97;13.60;;;4.20;99.90;;;;;;5074290;28;20503;-67
2021/04/05 03:56:39;;;;;;;19.70;12.93;;;4.10;99.90;;;;;;5074393;28;20419;-65
2021/04/05 03:59:10;;;;;;;18.23;11.83;;;4.10;99.90;;;;;;5074120;28;20421;-64
2021/04/05 04:01:52;;;;;;;16.73;12.10;;;4.20;99.90;;;;;;5073919;28;20437;-65
2021/04/05 04:04:35;;;;;;;19.23;10.77;;;4.20;99.90;;;;;;5073093;28;20985;-66
2021/04/05 04:09:34;;;;;;;16.80;14.23;;;4.20;99.90;;;;;;5074021;28;20964;-65
2021/04/05 04:12:01;;;;;;;20.57;13.67;;;4.30;99.90;;;;;;5073611;28;20449;-64
2021/04/05 04:14:27;;;;;;;22.40;14.27;;;4.30;99.90;;;;;;5073896;28;20927;-65
2021/04/05 04:16:53;;;;;;;20.90;13.53;;;4.30;99.90;;;;;;5074018;28;20804;-65
2021/04/05 04:19:20;;;;;;;19.50;14.80;;;4.30;99.90;;;;;;5073831;28;20410;-66
2021/04/05 04:21:47;;;;;;;17.70;11.77;;;4.30;99.90;;;;;;5073420;28;20484;-64
2021/04/05 04:24:15;;;;;;;22.37;13.70;;;4.30;99.90;;;;;;5073955;28;20448;-67
2021/04/05 04:26:41;;;;;;;19.50;14.13;;;4.20;99.90;;;;;;5073768;28;20491;-67
2021/04/05 04:29:14;;;;;;;29.03;15.03;;;4.20;99.90;;;;;;5073643;28;20405;-65
2021/04/05 04:31:40;;;;;;;20.23;13.87;;;4.20;99.90;;;;;;5073376;28;20551;-65
2021/04/05 04:34:06;;;;;;;20.40;12.27;;;4.20;99.90;;;;;;5073618;28;20417;-67
2021/04/05 04:36:32;;;;;;;18.97;13.50;;;4.20;99.90;;;;;;5073548;28;20417;-68
2021/04/05 04:38:58;;;;;;;20.00;13.53;;;4.20;99.90;;;;;;5073473;28;20178;-67
2021/04/05 04:41:25;;;;;;;24.07;15.00;;;4.10;99.90;;;;;;5073220;28;20459;-67
2021/04/05 04:44:02;;;;;;;30.23;14.40;;;4.10;99.90;;;;;;5073386;28;20595;-67
2021/04/05 04:46:28;;;;;;;17.37;12.83;;;4.20;99.90;;;;;;5073445;28;20409;-68
2021/04/05 04:48:58;;;;;;;19.03;13.87;;;4.20;99.90;;;;;;5073155;28;20417;-67
2021/04/05 04:51:24;;;;;;;24.97;13.80;;;4.20;99.90;;;;;;5072829;28;20461;-67
2021/04/05 04:53:53;;;;;;;20.57;15.00;;;4.20;99.90;;;;;;5073143;28;20425;-67
2021/04/05 04:56:19;;;;;;;20.97;14.60;;;4.10;99.90;;;;;;5073104;28;20467;-67
2021/04/05 04:58:44;;;;;;;20.20;14.63;;;4.10;99.90;;;;;;5072963;28;20429;-67
2021/04/05 05:01:11;;;;;;;26.40;15.50;;;4.20;99.90;;;;;;5072759;28;20257;-67
2021/04/05 05:03:42;;;;;;;18.77;14.77;;;4.10;99.90;;;;;;5072866;28;20278;-65
2021/04/05 05:06:09;;;;;;;19.33;13.60;;;4.00;99.90;;;;;;5072940;28;20450;-67
2021/04/05 05:08:35;;;;;;;27.23;17.10;;;4.10;99.90;;;;;;5072992;28;20454;-67
2021/04/05 05:11:01;;;;;;;16.53;13.40;;;4.10;99.90;;;;;;5072476;28;20819;-65
2021/04/05 05:13:26;;;;;;;24.77;17.00;;;4.10;99.90;;;;;;5072794;28;20542;-65
2021/04/05 05:15:53;;;;;;;22.90;14.33;;;4.00;99.90;;;;;;5072562;28;20413;-65
2021/04/05 05:18:18;;;;;;;33.73;16.77;;;4.10;99.90;;;;;;5072643;28;20178;-65
2021/04/05 05:20:44;;;;;;;27.10;17.70;;;4.00;99.90;;;;;;5072356;28;20413;-66
2021/04/05 05:23:10;;;;;;;24.43;17.57;;;4.10;99.90;;;;;;5072613;28;20175;-65
2021/04/05 05:25:39;;;;;;;22.00;16.40;;;4.00;99.90;;;;;;5072623;28;20217;-64
2021/04/05 05:28:08;;;;;;;21.60;16.57;;;4.00;99.90;;;;;;5072456;28;20410;-65
2021/04/05 05:30:35;;;;;;;30.77;16.67;;;4.00;99.90;;;;;;5072014;28;20456;-66
2021/04/05 05:33:06;;;;;;;20.90;17.80;;;4.00;99.90;;;;;;5072376;28;20916;-65
2021/04/05 05:35:34;;;;;;;31.33;16.20;;;4.10;99.90;;;;;;5072343;28;20866;-65
2021/04/05 05:38:04;;;;;;;24.37;17.20;;;4.00;99.90;;;;;;5072377;28;20398;-67
2021/04/05 05:40:31;;;;;;;25.67;17.87;;;4.00;99.90;;;;;;5072053;28;20402;-67
2021/04/05 05:43:19;;;;;;;23.10;16.20;;;3.60;99.90;;;;;;5072359;28;20405;-66
2021/04/05 05:46:00;;;;;;;24.87;17.27;;;3.90;99.90;;;;;;5072252;28;20404;-67
2021/04/05 05:48:31;;;;;;;26.60;17.80;;;3.90;99.90;;;;;;5072220;28;20409;-67
2021/04/05 05:51:16;;;;;;;25.03;18.53;;;3.80;99.90;;;;;;5071805;28;20887;-67
2021/04/05 05:53:57;;;;;;;22.47;17.93;;;3.80;99.90;;;;;;5072117;28;20831;-67
2021/04/05 05:56:39;;;;;;;26.50;16.33;;;3.80;99.90;;;;;;5072142;28;20763;-66
2021/04/05 05:59:42;;;;;;;32.47;17.87;;;3.70;99.90;;;;;;5071882;28;20509;-66
2021/04/05 06:02:55;;;;;;;29.20;16.33;;;3.60;99.90;;;;;;5071741;28;20401;-67
2021/04/05 06:05:39;;;;;;;24.17;17.70;;;3.70;99.90;;;;;;5071474;28;20437;-67
2021/04/05 06:08:28;;;;;;;25.60;16.60;;;3.70;99.90;;;;;;5071842;28;20385;-67
2021/04/05 06:11:12;;;;;;;43.53;16.73;;;3.60;99.90;;;;;;5071617;28;20511;-67
2021/04/05 06:13:50;;;;;;;29.93;18.30;;;3.60;99.90;;;;;;5071846;28;20504;-65
2021/04/05 06:16:15;;;;;;;27.07;17.70;;;3.60;99.90;;;;;;5072461;28;20770;-66
2021/04/05 06:19:05;;;;;;;25.50;15.60;;;3.60;99.90;;;;;;5071725;28;20459;-67
2021/04/05 06:21:44;;;;;;;27.83;17.47;;;3.60;99.90;;;;;;5071582;28;20174;-68
2021/04/05 06:24:19;;;;;;;25.10;16.50;;;3.70;99.90;;;;;;5071735;28;20428;-67
2021/04/05 06:26:55;;;;;;;25.27;17.50;;;3.70;99.90;;;;;;5071241;28;20402;-66
2021/04/05 06:29:49;;;;;;;34.17;19.00;;;3.70;99.90;;;;;;5071862;28;20414;-67
2021/04/05 06:32:34;;;;;;;38.73;19.30;;;3.70;99.90;;;;;;5071459;28;20449;-67
2021/04/05 06:35:19;;;;;;;31.80;17.37;;;3.70;99.90;;;;;;5071606;28;20953;-65
2021/04/05 06:37:48;;;;;;;28.70;18.37;;;3.80;99.90;;;;;;5071781;28;20796;-66
2021/04/05 06:40:17;;;;;;;30.07;18.07;;;3.80;99.90;;;;;;5071611;28;20932;-67
2021/04/05 06:43:12;;;;;;;27.67;18.70;;;3.80;99.90;;;;;;5071267;28;20950;-67
2021/04/05 06:46:02;;;;;;;31.90;20.13;;;3.70;99.90;;;;;;5071603;28;20462;-67
2021/04/05 06:48:37;;;;;;;28.07;17.20;;;3.80;99.90;;;;;;5071546;28;20189;-68
2021/04/05 06:51:34;;;;;;;30.87;18.77;;;3.80;99.90;;;;;;5071280;28;20480;-66
2021/04/05 06:54:06;;;;;;;23.97;16.03;;;3.80;99.90;;;;;;5069116;28;20817;-68
2021/04/05 06:56:57;;;;;;;31.53;21.20;;;3.80;99.90;;;;;;5071527;28;20397;-67
2021/04/05 06:59:41;;;;;;;25.87;17.30;;;3.80;99.90;;;;;;5071364;28;20429;-68
2021/04/05 07:02:44;;;;;;;32.47;19.03;;;3.80;99.90;;;;;;5071117;28;20408;-66
2021/04/05 07:05:45;;;;;;;23.87;17.37;;;3.80;99.90;;;;;;5071324;28;20869;-68
2021/04/05 07:08:20;;;;;;;36.03;20.63;;;3.80;99.90;;;;;;5071261;28;20478;-68
2021/04/05 07:10:59;;;;;;;28.40;19.33;;;3.80;99.90;;;;;;5070946;28;20512;-67
2021/04/05 07:13:47;;;;;;;29.20;20.60;;;3.90;99.90;;;;;;5071276;28;20429;-67
2021/04/05 07:16:25;;;;;;;38.50;19.37;;;3.90;99.90;;;;;;5071301;28;20398;-68
2021/04/05 07:19:07;;;;;;;27.17;19.33;;;3.90;99.90;;;;;;5071147;28;20397;-67
2021/04/05 07:21:39;;;;;;;23.63;16.57;;;3.90;99.90;;;;;;5071007;28;20406;-67
2021/04/05 07:24:26;;;;;;;28.30;20.43;;;3.90;99.90;;;;;;5071281;28;20417;-68
2021/04/05 07:27:22;;;;;;;27.83;19.93;;;3.90;99.90;;;;;;5071198;28;20402;-67
2021/04/05 07:30:13;;;;;;;28.50;19.47;;;4.00;99.90;;;;;;5071156;28;20405;-68
2021/04/05 07:32:59;;;;;;;28.97;19.80;;;4.00;99.90;;;;;;5070901;28;20412;-67
2021/04/05 07:35:43;;;;;;;31.63;21.80;;;4.00;99.90;;;;;;5071130;28;20408;-68
2021/04/05 07:38:17;;;;;;;26.83;17.40;;;4.00;99.90;;;;;;5071454;28;20396;-67
2021/04/05 07:41:23;;;;;;;28.33;18.17;;;4.00;99.90;;;;;;5074287;28;20427;-67
2021/04/05 07:44:03;;;;;;;30.70;18.73;;;4.10;99.90;;;;;;5074446;28;20456;-67
2021/04/05 07:46:41;;;;;;;30.00;16.70;;;4.10;99.90;;;;;;5074447;28;20431;-66
2021/04/05 07:49:22;;;;;;;23.33;17.93;;;4.20;99.90;;;;;;5074414;28;20393;-67
2021/04/05 07:52:12;;;;;;;26.87;18.13;;;4.20;99.90;;;;;;5074093;28;20456;-68
2021/04/05 07:54:38;;;;;;;28.53;19.27;;;4.20;99.90;;;;;;5074380;28;20421;-65
2021/04/05 07:57:32;;;;;;;34.83;19.47;;;4.30;99.90;;;;;;5074248;28;20401;-66
2021/04/05 08:00:15;;;;;;;30.33;17.23;;;4.30;99.90;;;;;;5074246;28;20402;-67
2021/04/05 08:03:02;;;;;;;30.30;19.47;;;4.30;99.90;;;;;;5073918;28;20498;-67
2021/04/05 08:05:46;;;;;;;30.00;19.27;;;4.30;99.90;;;;;;5074341;28;20408;-67
2021/04/05 08:08:36;;;;;;;23.60;17.83;;;4.30;99.90;;;;;;5074068;28;20398;-67
2021/04/05 08:11:26;;;;;;;27.10;17.40;;;4.40;99.90;;;;;;5073652;28;20456;-66
2021/04/05 08:14:23;;;;;;;25.50;16.20;;;4.40;99.90;;;;;;5074058;28;20422;-67
2021/04/05 08:16:59;;;;;;;26.90;15.20;;;4.40;99.90;;;;;;5073991;28;20447;-66
2021/04/05 08:19:28;;;;;;;30.40;19.00;;;4.40;99.90;;;;;;5073930;28;20488;-65
2021/04/05 08:22:22;;;;;;;25.13;17.10;;;4.50;99.90;;;;;;5073621;28;20441;-64
2021/04/05 08:25:10;;;;;;;41.37;18.87;;;4.50;99.90;;;;;;5073709;28;20511;-65
2021/04/05 08:27:48;;;;;;;29.63;20.00;;;4.60;99.90;;;;;;5073115;28;20432;-64
2021/04/05 08:30:23;;;;;;;28.77;21.10;;;4.70;99.90;;;;;;5073652;28;20401;-64
2021/04/05 08:33:07;;;;;;;31.67;21.20;;;4.70;99.90;;;;;;5073571;28;20397;-65
2021/04/05 08:35:37;;;;;;;27.10;19.50;;;4.70;99.90;;;;;;5073784;28;20429;-65
2021/04/05 08:38:33;;;;;;;28.93;19.17;;;4.70;99.90;;;;;;5073398;28;20397;-65
2021/04/05 08:41:23;;;;;;;31.60;18.00;;;4.70;99.90;;;;;;5073333;28;20827;-65
2021/04/05 08:44:10;;;;;;;31.97;18.90;;;4.70;99.90;;;;;;5073448;28;20421;-65
2021/04/05 08:46:36;;;;;;;29.30;20.90;;;4.80;99.90;;;;;;5073384;28;20398;-65
2021/04/05 08:49:24;;;;;;;26.90;18.33;;;4.80;99.90;;;;;;5072840;28;20475;-66
2021/04/05 08:51:53;;;;;;;30.30;20.00;;;4.90;99.90;;;;;;5072927;28;20447;-66
2021/04/05 08:54:22;;;;;;;26.77;16.70;;;4.90;99.90;;;;;;5073179;28;20417;-65
2021/04/05 08:56:59;;;;;;;26.33;17.93;;;4.90;99.90;;;;;;5073103;28;20952;-65
2021/04/05 08:59:27;;;;;;;28.83;15.13;;;4.90;99.90;;;;;;5073021;28;20431;-64
2021/04/05 09:02:19;;;;;;;20.40;14.70;;;4.90;99.90;;;;;;5072696;28;20452;-66
2021/04/05 09:04:47;;;;;;;13.87;12.03;;;5.00;99.90;;;;;;5072980;28;20425;-64
2021/04/05 09:07:32;;;;;;;8.63;7.70;;;4.90;99.90;;;;;;5072897;28;20405;-65
2021/04/05 09:10:04;;;;;;;8.20;7.37;;;4.80;99.90;;;;;;5072766;28;20393;-66
2021/04/05 09:12:33;;;;;;;9.30;7.30;;;4.80;99.90;;;;;;5072526;28;20441;-66
2021/04/05 09:15:38;;;;;;;6.80;6.20;;;4.80;99.90;;;;;;5071552;28;20425;-66
2021/04/05 09:18:42;;;;;;;5.50;5.00;;;4.80;99.90;;;;;;5072540;28;21021;-66
2021/04/05 09:21:29;;;;;;;6.73;4.70;;;4.70;99.90;;;;;;5072424;28;20840;-66
2021/04/05 09:24:29;;;;;;;4.37;3.97;;;4.60;99.90;;;;;;5072321;28;20421;-66
2021/04/05 09:27:07;;;;;;;4.47;4.17;;;4.50;99.90;;;;;;5072613;28;20406;-64
2021/04/05 09:29:38;;;;;;;4.33;4.03;;;4.50;99.90;;;;;;5072347;28;20820;-65
2021/04/05 09:32:35;;;;;;;3.23;3.13;;;4.60;99.90;;;;;;5072127;28;20540;-65
2021/04/05 09:35:22;;;;;;;5.43;3.33;;;4.60;99.90;;;;;;5072302;28;20413;-65
2021/04/05 09:38:02;;;;;;;3.80;3.33;;;4.60;99.90;;;;;;5072255;28;20425;-65
2021/04/05 09:40:43;;;;;;;2.80;2.70;;;4.60;99.90;;;;;;5072032;28;20398;-65
2021/04/05 09:43:53;;;;;;;2.77;2.60;;;4.70;99.90;;;;;;5072239;28;20455;-63
2021/04/05 09:46:49;;;;;;;2.30;2.30;;;4.70;99.90;;;;;;5071086;28;20406;-65
2021/04/05 09:49:41;;;;;;;2.60;2.50;;;4.70;99.90;;;;;;5072212;28;20967;-65
2021/04/05 09:52:18;;;;;;;2.90;2.80;;;4.70;99.90;;;;;;5071843;28;20477;-65
2021/04/05 09:54:48;;;;;;;2.70;2.60;;;4.70;99.90;;;;;;5072051;28;20494;-65
2021/04/05 09:57:25;;;;;;;2.60;2.50;;;4.50;99.90;;;;;;5071787;28;20837;-65
2021/04/05 09:59:54;;;;;;;7.07;4.60;;;4.50;99.90;;;;;;5071912;28;20404;-65
2021/04/05 10:02:44;;;;;;;5.33;3.80;;;4.40;99.90;;;;;;5070879;28;20410;-65
2021/04/05 10:05:12;;;;;;;3.10;2.90;;;4.20;99.90;;;;;;5071935;28;20421;-64
2021/04/05 10:07:40;;;;;;;3.80;3.50;;;4.10;99.90;;;;;;5071778;28;20402;-64
2021/04/05 10:10:07;;;;;;;4.03;3.67;;;3.90;99.90;;;;;;5071855;28;20493;-65
2021/04/05 10:12:33;;;;;;;4.67;4.37;;;3.90;99.90;;;;;;5071651;28;20401;-66
2021/04/05 10:15:01;;;;;;;4.30;2.83;;;3.80;99.90;;;;;;5071540;28;20413;-65
2021/04/05 10:17:27;;;;;;;5.80;4.70;;;3.80;99.90;;;;;;5071788;28;20415;-65
2021/04/05 10:19:57;;;;;;;2.47;2.37;;;3.90;99.90;;;;;;5071790;28;20822;-65
2021/04/05 10:22:23;;;;;;;4.87;4.27;;;4.00;99.90;;;;;;5071491;28;20448;-66
2021/04/05 10:24:56;;;;;;;2.90;2.70;;;4.00;99.90;;;;;;5071741;28;20453;-66
2021/04/05 10:27:26;;;;;;;5.33;3.03;;;4.00;99.90;;;;;;5071783;28;20401;-66
2021/04/05 10:29:54;;;;;;;3.00;2.80;;;3.80;99.90;;;;;;5071382;28;20433;-64
2021/04/05 10:32:25;;;;;;;3.40;3.20;;;3.60;99.90;;;;;;5071222;28;20464;-64
2021/04/05 10:35:00;;;;;;;3.70;3.50;;;3.60;99.90;;;;;;5071461;28;20421;-66
2021/04/05 10:37:34;;;;;;;2.93;2.77;;;3.60;99.90;;;;;;5071639;28;20427;-66
2021/04/05 10:40:01;;;;;;;4.17;3.87;;;3.50;99.90;;;;;;5071449;28;20404;-66
2021/04/05 10:42:33;;;;;;;4.13;3.93;;;3.50;99.90;;;;;;5071411;28;20406;-65
2021/04/05 10:45:05;;;;;;;5.20;4.20;;;3.40;99.90;;;;;;5071470;28;20533;-65
2021/04/05 10:47:48;;;;;;;4.13;3.93;;;3.50;99.90;;;;;;5071455;28;20469;-65
2021/04/05 10:50:14;;;;;;;4.30;3.97;;;3.50;99.90;;;;;;5071481;28;20413;-65
2021/04/05 10:52:43;;;;;;;4.13;3.63;;;3.50;99.90;;;;;;5071138;28;20421;-66
2021/04/05 10:55:29;;;;;;;5.50;3.77;;;3.70;99.90;;;;;;5071391;28;20417;-64
2021/04/05 10:58:04;;;;;;;4.20;3.90;;;3.70;99.90;;;;;;5071126;28;20421;-65
2021/04/05 11:00:36;;;;;;;5.80;3.80;;;3.80;99.90;;;;;;5071140;28;20534;-65
2021/04/05 11:03:08;;;;;;;3.97;2.97;;;3.90;99.90;;;;;;5071361;28;20492;-68
2021/04/05 11:05:37;;;;;;;9.97;3.40;;;3.80;99.90;;;;;;5071338;28;20410;-69
2021/04/05 11:08:04;;;;;;;10.10;3.80;;;3.80;99.90;;;;;;5071109;28;20420;-67
2021/04/05 11:10:33;;;;;;;3.33;3.13;;;3.90;99.90;;;;;;5070991;28;20481;-67
2021/04/05 11:13:11;;;;;;;3.20;2.60;;;3.80;99.90;;;;;;5072978;28;20405;-68
2021/04/05 11:15:39;;;;;;;2.70;2.50;;;3.60;99.90;;;;;;5075100;28;20889;-68
2021/04/05 11:18:08;;;;;;;2.83;2.63;;;3.50;99.90;;;;;;5075014;28;20409;-68
2021/04/05 11:20:36;;;;;;;9.57;3.93;;;3.40;99.90;;;;;;5074477;28;20429;-67
2021/04/05 11:23:06;;;;;;;4.90;3.80;;;3.30;99.90;;;;;;5074894;28;20410;-64
2021/04/05 11:25:35;;;;;;;7.23;2.87;;;3.40;99.90;;;;;;5075125;28;20764;-64
2021/04/05 11:28:12;;;;;;;2.53;2.43;;;3.50;99.90;;;;;;5074794;28;20401;-66
2021/04/05 11:30:39;;;;;;;3.40;3.20;;;3.60;99.90;;;;;;5074464;28;20543;-66
2021/04/05 11:33:08;;;;;;;5.47;3.50;;;4.00;99.90;;;;;;5074533;28;20778;-65
2021/04/05 11:35:35;;;;;;;2.73;2.63;;;3.70;99.90;;;;;;5074583;28;20401;-66
2021/04/05 11:38:03;;;;;;;4.27;2.67;;;3.80;99.60;;;;;;5074645;28;20398;-68
2021/04/05 11:40:30;;;;;;;2.70;2.50;;;3.60;99.60;;;;;;5074427;28;20954;-64
2021/04/05 11:42:58;;;;;;;4.53;3.17;;;3.70;99.90;;;;;;5074521;28;20405;-66
2021/04/05 11:45:39;;;;;;;7.83;3.70;;;3.70;99.80;;;;;;5074522;28;20447;-65
2021/04/05 11:48:11;;;;;;;3.60;3.30;;;3.80;99.90;;;;;;5074501;28;20413;-65
2021/04/05 11:50:43;;;;;;;4.87;4.40;;;3.80;99.90;;;;;;5073913;28;20448;-65
2021/04/05 11:53:16;;;;;;;3.77;2.97;;;3.80;99.90;;;;;;5074382;28;20882;-65
2021/04/05 11:55:43;;;;;;;7.83;4.03;;;3.80;99.90;;;;;;5074412;28;20416;-68
2021/04/05 11:58:27;;;;;;;3.90;3.60;;;3.70;99.20;;;;;;5074022;28;20422;-68
2021/04/05 12:01:03;;;;;;;3.20;3.00;;;3.70;99.90;;;;;;5073965;28;20636;-65
2021/04/05 12:03:33;;;;;;;3.67;3.37;;;4.00;99.90;;;;;;5074434;28;20796;-65
2021/04/05 12:06:37;;;;;;;5.13;3.03;;;4.00;99.90;;;;;;5074258;28;20429;-66
2021/04/05 12:09:07;;;;;;;5.20;3.50;;;4.10;99.80;;;;;;5062028;28;20427;-65
2021/04/05 12:11:45;;;;;;;3.90;3.60;;;4.00;99.90;;;;;;5073759;28;20541;-66
2021/04/05 12:14:15;;;;;;;2.97;2.80;;;4.00;99.90;;;;;;5073953;28;20478;-68
2021/04/05 12:16:47;;;;;;;3.53;2.80;;;4.10;99.90;;;;;;5074051;28;20398;-68
2021/04/05 12:19:20;;;;;;;5.73;4.17;;;4.20;99.90;;;;;;5072277;28;20451;-65
2021/04/05 12:21:51;;;;;;;3.10;2.90;;;4.20;99.90;;;;;;5073678;28;20512;-67
2021/04/05 12:24:24;;;;;;;5.70;2.97;;;4.30;99.70;;;;;;5072947;28;20421;-66
2021/04/05 12:26:55;;;;;;;3.10;2.90;;;4.40;99.90;;;;;;5073730;28;20466;-66
2021/04/05 12:29:25;;;;;;;4.73;2.77;;;4.90;99.90;;;;;;5073585;28;20758;-64
2021/04/05 12:31:55;;;;;;;5.00;2.80;;;4.60;99.90;;;;;;5073267;28;20488;-64
2021/04/05 12:34:29;;;;;;;3.10;2.80;;;6.10;99.80;;;;;;5073524;28;20937;-64
2021/04/05 12:36:59;;;;;;;5.47;3.17;;;5.40;97.80;;;;;;5073695;28;20416;-63
2021/04/05 12:39:33;;;;;;;3.93;2.10;;;5.70;98.40;;;;;;5073404;28;20410;-65
2021/04/05 12:42:06;;;;;;;2.70;2.60;;;5.70;96.90;;;;;;5073094;28;20412;-65
2021/04/05 12:44:32;;;;;;;5.13;3.07;;;6.00;95.90;;;;;;5073412;28;20436;-64
2021/04/05 12:47:01;;;;;;;2.77;2.37;;;6.20;97.20;;;;;;5073327;28;20409;-64
2021/04/05 12:49:30;;;;;;;4.17;3.27;;;6.20;94.20;;;;;;5073271;28;20504;-65
2021/04/05 12:52:07;;;;;;;3.30;2.90;;;6.40;94.20;;;;;;5072821;28;20961;-65
2021/04/05 12:54:41;;;;;;;4.30;3.30;;;7.00;97.90;;;;;;5073107;28;20632;-64
2021/04/05 12:57:09;;;;;;;8.20;3.73;;;7.40;97.20;;;;;;5073036;28;20493;-65
2021/04/05 12:59:36;;;;;;;3.90;3.57;;;7.30;94.90;;;;;;5072973;28;20409;-63
2021/04/05 13:02:11;;;;;;;3.57;3.27;;;7.40;94.40;;;;;;5072870;28;20496;-64
2021/04/05 13:04:43;;;;;;;6.53;4.20;;;7.30;94.00;;;;;;5072924;28;20433;-64
2021/04/05 13:07:18;;;;;;;4.33;3.83;;;7.40;93.20;;;;;;5073034;28;20409;-64
2021/04/05 13:09:54;;;;;;;3.23;3.03;;;7.50;93.40;;;;;;5072564;28;20503;-64
2021/04/05 13:12:30;;;;;;;9.00;3.63;;;7.70;92.00;;;;;;5072524;28;20461;-65
2021/04/05 13:15:02;;;;;;;3.87;3.00;;;8.80;96.50;;;;;;5072815;28;20880;-65
2021/04/05 13:17:34;;;;;;;6.77;3.53;;;8.90;93.40;;;;;;5072783;28;20451;-64
2021/04/05 13:20:11;;;;;;;4.30;3.20;;;8.80;93.10;;;;;;5072685;28;20401;-64
2021/04/05 13:22:39;;;;;;;6.67;3.57;;;8.60;90.60;;;;;;5072459;28;20409;-64